Time;durP1;ratioP1;P1;durP2;ratioP2;P2;SDS_P1;SDS_P2;PMS_P1;PMS_P2;Temp;Humidity;BMP_temperature;BMP_pressure;BME280_temperature;BME280_humidity;BME280_pressure;Samples;Min_cycle;Max_cycle;Signal;HPM_P1;HPM_P2
2023/10/10 00:00:49;;;;;;;8.50;6.10;;;22.50;99.90;;;;;;6222028;28;84343;-70
2023/10/10 00:03:51;;;;;;;8.18;5.80;;;22.50;99.90;;;;;;6224614;28;85100;-71
2023/10/10 00:06:53;;;;;;;10.23;6.20;;;22.40;99.90;;;;;;6228179;28;84142;-71
2023/10/10 00:09:56;;;;;;;9.50;5.85;;;22.50;99.90;;;;;;6225774;28;82906;-71
2023/10/10 00:12:58;;;;;;;11.32;5.82;;;22.40;99.90;;;;;;6230045;28;83980;-71
2023/10/10 00:16:05;;;;;;;7.05;5.95;;;22.50;99.90;;;;;;6229051;28;84029;-71
2023/10/10 00:19:17;;;;;;;10.50;6.30;;;22.40;99.90;;;;;;6220060;28;84226;-71
2023/10/10 00:22:26;;;;;;;10.63;6.72;;;22.40;99.90;;;;;;6224337;28;84022;-71
2023/10/10 00:25:30;;;;;;;9.10;5.55;;;22.40;99.90;;;;;;6230014;28;83423;-71
2023/10/10 00:28:34;;;;;;;8.68;5.65;;;22.30;99.90;;;;;;6225342;28;83805;-70
2023/10/10 00:31:56;;;;;;;11.70;6.32;;;22.30;99.90;;;;;;6222847;28;84112;-71
2023/10/10 00:34:59;;;;;;;10.35;6.18;;;22.30;99.90;;;;;;6217945;28;85054;-73
2023/10/10 00:38:05;;;;;;;8.70;5.88;;;22.30;99.90;;;;;;6222358;28;83966;-71
2023/10/10 00:41:10;;;;;;;8.02;5.32;;;22.30;99.90;;;;;;6223570;28;83956;-71
2023/10/10 00:44:15;;;;;;;10.45;6.25;;;22.30;99.90;;;;;;6212611;28;85151;-71
2023/10/10 00:47:24;;;;;;;7.78;5.85;;;22.30;99.90;;;;;;6221912;28;84001;-71
2023/10/10 00:50:26;;;;;;;9.90;6.07;;;22.30;99.90;;;;;;6214788;28;84222;-71
2023/10/10 00:53:30;;;;;;;8.30;5.80;;;22.40;99.90;;;;;;6215988;28;85019;-71
2023/10/10 00:56:32;;;;;;;8.15;5.50;;;22.40;99.90;;;;;;6219857;28;82968;-71
2023/10/10 00:59:42;;;;;;;11.07;6.03;;;22.40;99.90;;;;;;6232582;28;83944;-71
2023/10/10 01:02:45;;;;;;;9.43;5.80;;;22.30;99.90;;;;;;6229744;28;84284;-70
2023/10/10 01:06:04;;;;;;;7.82;5.70;;;22.30;99.90;;;;;;6224207;28;85055;-71
2023/10/10 01:09:20;;;;;;;11.80;6.50;;;22.40;99.90;;;;;;6232455;28;82896;-71
2023/10/10 01:12:23;;;;;;;8.90;5.50;;;22.30;99.90;;;;;;6227192;28;84230;-71
2023/10/10 01:15:34;;;;;;;9.90;5.95;;;22.30;99.90;;;;;;6229037;28;84006;-71
2023/10/10 01:18:45;;;;;;;10.25;6.22;;;22.30;99.90;;;;;;6211887;28;84147;-70
2023/10/10 01:21:57;;;;;;;10.02;5.80;;;22.30;99.90;;;;;;6231952;28;84092;-70
2023/10/10 01:24:59;;;;;;;8.82;5.70;;;22.40;99.90;;;;;;6226031;28;83899;-70
2023/10/10 01:28:05;;;;;;;7.38;5.22;;;22.30;99.90;;;;;;6234912;28;82243;-71
2023/10/10 01:31:10;;;;;;;8.55;5.60;;;22.30;99.90;;;;;;6211788;28;82661;-71
2023/10/10 01:34:30;;;;;;;8.10;5.95;;;22.30;99.90;;;;;;6217817;28;84123;-71
2023/10/10 01:37:40;;;;;;;7.93;5.00;;;22.30;99.90;;;;;;6224749;28;86203;-70
2023/10/10 01:40:42;;;;;;;7.65;5.70;;;22.30;99.90;;;;;;6232636;28;84353;-70
2023/10/10 01:43:46;;;;;;;7.93;5.80;;;22.30;99.90;;;;;;6217557;28;83782;-71
2023/10/10 01:46:47;;;;;;;8.15;5.75;;;22.30;99.90;;;;;;6218886;28;84102;-71
2023/10/10 01:49:50;;;;;;;7.35;5.38;;;22.30;99.90;;;;;;6209705;28;84084;-71
2023/10/10 01:52:55;;;;;;;8.38;4.93;;;22.30;99.90;;;;;;6210193;28;84046;-70
2023/10/10 01:56:06;;;;;;;7.25;5.30;;;22.30;99.90;;;;;;6227350;28;84227;-70
2023/10/10 01:59:13;;;;;;;7.80;5.30;;;22.20;99.90;;;;;;6220977;28;83363;-71
2023/10/10 02:02:16;;;;;;;8.63;5.43;;;22.30;99.90;;;;;;6219648;28;83968;-71
2023/10/10 02:05:30;;;;;;;9.10;5.53;;;22.30;99.90;;;;;;6226891;28;83046;-71
2023/10/10 02:08:34;;;;;;;7.72;5.53;;;22.30;99.90;;;;;;6217399;28;84702;-71
2023/10/10 02:11:38;;;;;;;9.93;5.75;;;22.30;99.90;;;;;;6217860;28;82904;-72
2023/10/10 02:14:43;;;;;;;8.25;5.30;;;22.20;99.90;;;;;;6230624;28;84063;-71
2023/10/10 02:17:51;;;;;;;9.55;5.68;;;22.20;99.90;;;;;;6223548;28;83838;-71
2023/10/10 02:20:54;;;;;;;10.45;6.10;;;22.20;99.90;;;;;;6220004;28;83824;-71
2023/10/10 02:24:09;;;;;;;10.52;5.93;;;22.20;99.90;;;;;;6209853;28;84488;-71
2023/10/10 02:27:13;;;;;;;6.85;4.93;;;22.20;99.90;;;;;;6223698;28;84123;-72
2023/10/10 02:30:22;;;;;;;7.65;5.05;;;22.20;99.90;;;;;;6220447;28;82977;-71
2023/10/10 02:33:31;;;;;;;8.57;5.28;;;22.30;99.90;;;;;;6225016;28;85691;-71
2023/10/10 02:36:34;;;;;;;9.02;5.43;;;22.30;99.90;;;;;;6221803;28;84263;-72
2023/10/10 02:39:41;;;;;;;7.72;5.63;;;22.30;99.90;;;;;;6221602;28;84918;-71
2023/10/10 02:42:50;;;;;;;8.82;5.20;;;22.30;99.90;;;;;;6229435;28;84513;-71
2023/10/10 02:45:52;;;;;;;8.82;5.78;;;22.30;99.90;;;;;;6220238;28;84002;-72
2023/10/10 02:48:56;;;;;;;7.07;5.18;;;22.20;99.90;;;;;;6216841;28;84578;-71
2023/10/10 02:52:05;;;;;;;7.50;4.90;;;22.20;99.90;;;;;;6232258;28;84421;-71
2023/10/10 02:55:14;;;;;;;7.28;5.38;;;22.20;99.90;;;;;;6228110;28;83998;-71
2023/10/10 02:58:21;;;;;;;7.78;5.43;;;22.30;99.90;;;;;;6221958;28;83799;-71
2023/10/10 03:01:50;;;;;;;7.03;5.22;;;22.20;99.90;;;;;;6232837;28;82494;-71
2023/10/10 03:05:05;;;;;;;6.70;5.28;;;22.20;99.90;;;;;;6224306;28;82829;-71
2023/10/10 03:08:13;;;;;;;6.55;4.85;;;22.20;99.90;;;;;;6234612;28;84084;-72
2023/10/10 03:11:35;;;;;;;7.20;4.80;;;22.20;99.90;;;;;;6227384;28;85167;-71
2023/10/10 03:14:43;;;;;;;7.22;5.22;;;22.20;99.90;;;;;;6221306;28;82919;-71
2023/10/10 03:17:48;;;;;;;9.07;5.45;;;22.20;99.90;;;;;;6226632;28;83975;-71
2023/10/10 03:24:15;;;;;;;7.53;5.40;;;22.20;99.90;;;;;;6216938;28;82610;-70
2023/10/10 03:30:50;;;;;;;7.43;5.25;;;22.20;99.90;;;;;;6220427;28;82500;-70
2023/10/10 03:34:11;;;;;;;6.57;4.85;;;22.20;99.90;;;;;;6225823;28;83607;-71
2023/10/10 03:37:28;;;;;;;8.82;5.05;;;22.20;99.90;;;;;;6217100;28;83178;-70
2023/10/10 03:41:11;;;;;;;8.48;5.28;;;22.20;99.90;;;;;;6215684;28;84180;-70
2023/10/10 05:24:26;;;;;;;10.90;4.80;;;22.80;99.90;;;;;;6225677;28;83203;-72
2023/10/10 05:27:32;;;;;;;8.82;4.65;;;22.90;99.90;;;;;;6223043;28;84104;-71
2023/10/10 05:30:42;;;;;;;8.23;4.85;;;22.80;99.90;;;;;;6217919;28;84108;-72
2023/10/10 05:33:44;;;;;;;8.48;4.38;;;22.90;99.90;;;;;;6222990;28;84057;-72
2023/10/10 05:36:47;;;;;;;6.82;4.30;;;22.90;99.90;;;;;;6226547;28;84030;-72
2023/10/10 05:39:56;;;;;;;6.47;4.07;;;22.90;99.90;;;;;;6214428;28;83606;-72
2023/10/10 05:42:58;;;;;;;7.40;4.03;;;22.90;99.90;;;;;;6229990;28;83955;-73
2023/10/10 05:46:00;;;;;;;7.43;4.80;;;23.00;99.90;;;;;;6230895;28;83573;-73
2023/10/10 05:49:03;;;;;;;8.93;5.03;;;23.00;99.90;;;;;;6231430;28;84074;-72
2023/10/10 05:52:06;;;;;;;7.05;4.30;;;23.00;99.90;;;;;;6232075;28;83272;-71
2023/10/10 05:55:11;;;;;;;7.15;4.55;;;23.00;99.90;;;;;;6224362;28;85932;-71
2023/10/10 05:58:14;;;;;;;7.20;4.50;;;23.00;99.90;;;;;;6228893;28;83995;-72
2023/10/10 06:01:18;;;;;;;6.15;4.20;;;23.10;99.90;;;;;;6233469;28;83713;-71
2023/10/10 06:04:21;;;;;;;7.65;4.88;;;23.10;99.90;;;;;;6230879;28;84025;-72
2023/10/10 06:07:24;;;;;;;7.35;4.30;;;23.10;99.90;;;;;;6226178;28;82922;-72
2023/10/10 06:10:31;;;;;;;7.10;4.10;;;23.10;99.90;;;;;;6227312;28;84135;-73
2023/10/10 06:13:38;;;;;;;10.95;5.18;;;23.10;99.90;;;;;;6230818;28;84575;-71
2023/10/10 06:16:41;;;;;;;8.35;4.63;;;23.10;99.90;;;;;;6223311;28;82348;-72
2023/10/10 06:19:45;;;;;;;7.13;4.38;;;23.20;99.90;;;;;;6224610;28;83893;-71
2023/10/10 06:22:47;;;;;;;8.30;4.20;;;23.10;99.90;;;;;;6221591;28;84362;-72
2023/10/10 06:25:59;;;;;;;8.15;4.90;;;23.20;99.90;;;;;;6218802;28;84968;-73
2023/10/10 06:29:02;;;;;;;7.95;4.30;;;23.20;99.90;;;;;;6224710;28;84465;-73
2023/10/10 06:32:10;;;;;;;8.23;4.35;;;23.20;99.90;;;;;;6216228;28;84089;-73
2023/10/10 06:35:26;;;;;;;8.98;4.50;;;23.20;99.90;;;;;;6220115;28;84397;-72
2023/10/10 06:38:28;;;;;;;6.78;3.92;;;23.20;99.90;;;;;;6223068;28;84080;-72
2023/10/10 06:41:40;;;;;;;7.40;4.30;;;23.30;99.90;;;;;;6221643;28;84366;-72
2023/10/10 06:44:47;;;;;;;5.90;4.15;;;23.30;99.90;;;;;;6213134;28;84263;-71
2023/10/10 06:47:51;;;;;;;7.75;4.40;;;23.30;99.90;;;;;;6210919;28;83815;-71
2023/10/10 06:50:53;;;;;;;7.25;4.57;;;23.30;99.90;;;;;;6231692;28;84033;-73
2023/10/10 06:53:56;;;;;;;7.22;4.43;;;23.30;99.90;;;;;;6210293;28;84068;-73
2023/10/10 06:57:05;;;;;;;6.72;3.90;;;23.30;99.90;;;;;;6219592;28;84982;-72
2023/10/10 07:00:27;;;;;;;7.82;4.45;;;23.30;99.90;;;;;;6231726;28;83999;-72
2023/10/10 07:03:39;;;;;;;8.60;4.78;;;23.30;99.90;;;;;;6206743;28;84065;-73
2023/10/10 07:06:45;;;;;;;8.82;5.20;;;23.40;99.90;;;;;;6209461;28;84497;-72
2023/10/10 07:09:47;;;;;;;7.95;4.85;;;23.40;99.90;;;;;;6208602;28;84346;-72
2023/10/10 07:12:50;;;;;;;7.15;4.63;;;23.40;99.90;;;;;;6207800;28;84047;-73
2023/10/10 07:15:53;;;;;;;8.27;4.43;;;23.40;99.90;;;;;;6210153;28;84244;-73
2023/10/10 07:18:56;;;;;;;9.05;4.65;;;23.40;99.90;;;;;;6207104;28;83398;-72
2023/10/10 07:21:59;;;;;;;8.05;4.80;;;23.40;99.90;;;;;;6209714;28;83956;-74
2023/10/10 07:25:07;;;;;;;11.13;5.50;;;23.40;99.90;;;;;;6210576;28;85680;-73
2023/10/10 07:28:14;;;;;;;8.95;4.90;;;23.50;99.90;;;;;;6209366;28;84912;-72
2023/10/10 07:31:20;;;;;;;8.13;4.70;;;23.50;99.90;;;;;;6210594;28;84982;-72
2023/10/10 07:34:34;;;;;;;8.18;4.47;;;23.50;99.90;;;;;;6209510;28;83740;-73
2023/10/10 07:37:37;;;;;;;8.52;4.70;;;23.50;99.90;;;;;;6213429;28;84582;-72
2023/10/10 07:40:39;;;;;;;7.63;4.40;;;23.50;99.90;;;;;;6210712;28;84099;-73
2023/10/10 07:43:42;;;;;;;7.93;4.63;;;23.60;99.90;;;;;;6219480;28;85089;-73
2023/10/10 07:47:10;;;;;;;5.90;4.00;;;23.60;99.90;;;;;;6221834;28;84033;-72
2023/10/10 07:50:08;;;;;;;10.32;4.70;;;23.60;99.90;;;;;;6229746;28;83235;-71
2023/10/10 07:53:12;;;;;;;9.55;4.20;;;23.60;99.90;;;;;;6228517;28;84262;-71
2023/10/10 07:56:16;;;;;;;9.02;4.00;;;23.70;99.90;;;;;;6216705;28;84133;-72
2023/10/10 07:59:20;;;;;;;8.23;4.22;;;23.70;99.90;;;;;;6234727;28;84724;-72
2023/10/10 08:02:25;;;;;;;7.00;4.40;;;23.70;99.90;;;;;;6234170;28;84400;-72
2023/10/10 08:05:29;;;;;;;5.80;4.40;;;23.70;99.90;;;;;;6233656;28;84044;-72
2023/10/10 08:08:35;;;;;;;8.02;4.30;;;23.60;99.90;;;;;;6230275;28;84095;-72
2023/10/10 08:11:38;;;;;;;7.53;4.18;;;23.70;99.90;;;;;;6235818;28;83323;-72
2023/10/10 08:14:42;;;;;;;6.93;4.40;;;23.70;99.90;;;;;;6220955;28;84121;-72
2023/10/10 08:17:51;;;;;;;7.15;4.38;;;23.70;99.90;;;;;;6223473;28;84560;-72
2023/10/10 08:21:10;;;;;;;7.22;4.55;;;23.70;99.90;;;;;;6219777;28;83007;-72
2023/10/10 08:24:12;;;;;;;6.93;4.40;;;23.70;99.90;;;;;;6223336;28;84061;-72
2023/10/10 08:27:14;;;;;;;5.85;3.85;;;23.70;99.90;;;;;;6231654;28;82870;-72
2023/10/10 08:30:25;;;;;;;9.38;4.90;;;23.70;99.90;;;;;;6212636;28;83856;-72
2023/10/10 08:33:32;;;;;;;8.23;4.88;;;23.70;99.90;;;;;;6232723;28;84511;-72
2023/10/10 08:36:34;;;;;;;6.90;4.45;;;23.70;99.90;;;;;;6216680;28;84109;-71
2023/10/10 08:39:36;;;;;;;7.07;4.32;;;23.70;99.90;;;;;;6210978;28;83927;-72
2023/10/10 08:42:38;;;;;;;7.65;4.72;;;23.70;99.90;;;;;;6221942;28;84174;-71
2023/10/10 08:45:49;;;;;;;9.95;5.60;;;23.70;99.90;;;;;;6212849;28;84094;-71
2023/10/10 08:48:53;;;;;;;8.63;4.55;;;23.70;99.90;;;;;;6220355;28;83945;-71
2023/10/10 08:52:00;;;;;;;7.75;4.25;;;23.70;99.90;;;;;;6226758;28;83674;-71
2023/10/10 08:55:03;;;;;;;6.53;4.32;;;23.80;99.90;;;;;;6217074;28;83074;-72
2023/10/10 08:58:07;;;;;;;6.93;4.35;;;23.80;99.90;;;;;;6228598;28;84036;-72
2023/10/10 09:01:11;;;;;;;5.82;4.30;;;23.80;99.90;;;;;;6223735;28;85515;-71
2023/10/10 09:04:18;;;;;;;5.95;4.18;;;23.80;99.90;;;;;;6220814;28;84007;-72
2023/10/10 09:07:28;;;;;;;6.25;4.32;;;23.80;99.90;;;;;;6225481;28;83130;-72
2023/10/10 09:10:38;;;;;;;5.38;4.20;;;23.80;99.90;;;;;;6217575;28;84231;-73
2023/10/10 09:13:54;;;;;;;6.75;4.05;;;23.80;99.90;;;;;;6214905;28;84190;-72
2023/10/10 09:16:57;;;;;;;6.68;4.15;;;23.80;99.90;;;;;;6222308;28;84393;-72
2023/10/10 09:20:00;;;;;;;8.95;5.22;;;23.90;99.90;;;;;;6220506;28;84329;-73
2023/10/10 09:23:07;;;;;;;4.50;3.75;;;23.90;99.90;;;;;;6219638;28;82130;-72
2023/10/10 09:26:19;;;;;;;7.13;4.68;;;23.90;99.90;;;;;;6224213;28;82959;-71
2023/10/10 09:29:32;;;;;;;6.78;4.60;;;23.90;99.90;;;;;;6227566;28;84075;-72
2023/10/10 09:32:42;;;;;;;7.82;4.28;;;23.90;99.90;;;;;;6226226;28;85124;-72
2023/10/10 09:35:49;;;;;;;5.68;4.00;;;23.90;99.90;;;;;;6221925;28;83904;-72
2023/10/10 09:38:54;;;;;;;6.70;4.40;;;23.90;99.90;;;;;;6218511;28;83951;-73
2023/10/10 09:42:06;;;;;;;5.40;3.90;;;23.90;99.90;;;;;;6234650;28;82946;-72
2023/10/10 09:45:27;;;;;;;5.75;3.80;;;23.90;99.90;;;;;;6228149;28;84071;-72
2023/10/10 09:48:59;;;;;;;8.40;4.20;;;23.90;99.90;;;;;;6222236;28;84104;-72
2023/10/10 09:55:39;;;;;;;7.45;4.28;;;23.90;99.90;;;;;;6222501;28;81384;-72
2023/10/10 09:58:44;;;;;;;7.35;4.20;;;23.80;99.90;;;;;;6223796;28;82853;-72
2023/10/10 10:01:47;;;;;;;6.15;4.25;;;23.80;99.90;;;;;;6215736;28;83836;-72
2023/10/10 10:04:53;;;;;;;6.95;4.60;;;23.80;99.90;;;;;;6230049;28;84964;-72
2023/10/10 10:08:06;;;;;;;5.55;3.70;;;23.80;99.90;;;;;;6220188;28;83850;-72
2023/10/10 10:11:11;;;;;;;5.63;4.28;;;23.70;99.90;;;;;;6210583;28;84272;-72
2023/10/10 10:14:23;;;;;;;5.80;4.00;;;23.70;99.90;;;;;;6228619;28;83984;-72
2023/10/10 10:17:47;;;;;;;7.63;4.25;;;23.70;99.90;;;;;;6218822;28;82899;-72
2023/10/10 10:21:05;;;;;;;5.78;4.32;;;23.70;99.90;;;;;;6222942;28;84117;-73
2023/10/10 10:24:26;;;;;;;9.23;4.68;;;23.70;99.90;;;;;;6223482;28;84607;-72
2023/10/10 10:27:31;;;;;;;6.03;4.10;;;23.70;99.90;;;;;;6218815;28;83395;-71
2023/10/10 10:30:46;;;;;;;7.47;4.28;;;23.70;99.90;;;;;;6212532;28;84551;-71
2023/10/10 10:34:06;;;;;;;5.35;3.63;;;23.70;99.90;;;;;;6224454;28;82963;-72
2023/10/10 10:37:19;;;;;;;5.80;4.20;;;23.70;99.90;;;;;;6230437;28;84953;-71
2023/10/10 10:40:24;;;;;;;5.88;4.28;;;23.60;99.90;;;;;;6231418;28;83727;-71
2023/10/10 10:43:32;;;;;;;5.93;3.97;;;23.60;99.90;;;;;;6232791;28;84361;-72
2023/10/10 10:46:39;;;;;;;6.40;4.40;;;23.60;99.90;;;;;;6211167;28;84103;-71
2023/10/10 10:49:42;;;;;;;5.25;4.13;;;23.60;99.90;;;;;;6217863;28;84042;-72
2023/10/10 10:52:56;;;;;;;6.03;4.00;;;23.60;99.90;;;;;;6221154;28;84269;-72
2023/10/10 10:59:20;;;;;;;6.53;4.10;;;23.60;99.90;;;;;;6222754;28;81503;-72
2023/10/10 11:02:30;;;;;;;5.10;3.85;;;23.60;99.90;;;;;;6225706;28;83743;-72
2023/10/10 11:05:32;;;;;;;5.65;3.90;;;23.60;99.90;;;;;;6222840;28;84110;-71
2023/10/10 11:09:08;;;;;;;6.13;4.00;;;23.50;99.90;;;;;;6230905;28;84980;-72
2023/10/10 11:12:12;;;;;;;5.57;3.95;;;23.50;99.90;;;;;;6213335;28;82800;-72
2023/10/10 11:15:15;;;;;;;6.38;4.25;;;23.50;99.90;;;;;;6225172;28;84526;-72
2023/10/10 11:18:27;;;;;;;5.93;4.10;;;23.50;99.90;;;;;;6217191;28;84051;-72
2023/10/10 11:21:34;;;;;;;5.78;4.22;;;23.50;99.90;;;;;;6223087;28;83721;-72
2023/10/10 11:24:38;;;;;;;6.10;4.13;;;23.50;99.90;;;;;;6223076;28;83037;-72
2023/10/10 11:27:44;;;;;;;5.63;3.92;;;23.50;99.90;;;;;;6229577;28;84246;-73
2023/10/10 11:30:46;;;;;;;6.55;4.60;;;23.40;99.90;;;;;;6227233;28;83193;-72
2023/10/10 11:33:55;;;;;;;7.10;4.38;;;23.50;99.90;;;;;;6230745;28;84568;-71
2023/10/10 11:37:14;;;;;;;5.50;4.30;;;23.50;99.90;;;;;;6225220;28;83902;-72
2023/10/10 11:40:31;;;;;;;6.07;4.30;;;23.50;99.90;;;;;;6224131;28;84897;-71
2023/10/10 11:43:33;;;;;;;7.18;4.13;;;23.50;99.90;;;;;;6231825;28;84093;-72
2023/10/10 11:46:38;;;;;;;5.40;4.00;;;23.50;99.90;;;;;;6225376;28;84454;-73
2023/10/10 11:49:41;;;;;;;6.25;4.00;;;23.40;99.90;;;;;;6226959;28;84025;-73
2023/10/10 11:52:53;;;;;;;7.10;4.45;;;23.40;99.90;;;;;;6230867;28;83958;-72
2023/10/10 11:56:01;;;;;;;5.55;3.92;;;23.40;99.90;;;;;;6221943;28;84271;-72
2023/10/10 11:59:09;;;;;;;5.35;3.80;;;23.40;99.90;;;;;;6231545;28;84024;-72
2023/10/10 12:02:16;;;;;;;6.53;4.15;;;23.50;99.90;;;;;;6236026;28;83322;-72
2023/10/10 12:05:47;;;;;;;8.13;4.70;;;23.50;99.90;;;;;;6228786;28;83675;-72
2023/10/10 12:08:50;;;;;;;6.78;4.20;;;23.50;99.90;;;;;;6235050;28;85109;-72
2023/10/10 12:11:58;;;;;;;5.65;4.10;;;23.40;99.90;;;;;;6232092;28;85082;-72
2023/10/10 12:15:01;;;;;;;5.88;4.32;;;23.40;99.90;;;;;;6233693;28;82988;-71
2023/10/10 12:18:09;;;;;;;6.43;4.43;;;23.40;99.90;;;;;;6220789;28;84119;-72
2023/10/10 12:21:14;;;;;;;6.60;4.45;;;23.40;99.90;;;;;;6229526;28;84117;-72
2023/10/10 12:24:18;;;;;;;5.30;3.97;;;23.40;99.90;;;;;;6219881;28;84081;-72
2023/10/10 12:27:29;;;;;;;5.13;3.75;;;23.40;99.90;;;;;;6222929;28;82931;-72
2023/10/10 12:30:31;;;;;;;5.65;4.03;;;23.40;99.90;;;;;;6224039;28;84306;-71
2023/10/10 12:33:36;;;;;;;5.70;3.97;;;23.40;99.90;;;;;;6213062;28;82513;-72
2023/10/10 12:36:38;;;;;;;5.72;4.00;;;23.30;99.90;;;;;;6221563;28;84067;-74
2023/10/10 12:39:40;;;;;;;6.05;4.20;;;23.30;99.90;;;;;;6231350;28;83968;-71
2023/10/10 12:42:43;;;;;;;6.43;4.22;;;23.40;99.90;;;;;;6224808;28;85014;-71
2023/10/10 12:45:47;;;;;;;6.15;4.10;;;23.40;99.90;;;;;;6224694;28;84036;-71
2023/10/10 12:48:51;;;;;;;7.05;4.05;;;23.40;99.90;;;;;;6220167;28;84041;-70
2023/10/10 12:51:53;;;;;;;6.35;4.32;;;23.40;99.90;;;;;;6232547;28;83622;-71
2023/10/10 12:54:58;;;;;;;6.22;4.32;;;23.40;99.90;;;;;;6228975;28;82633;-70
2023/10/10 12:58:04;;;;;;;8.38;4.68;;;23.40;99.90;;;;;;6227851;28;84134;-70
2023/10/10 13:01:06;;;;;;;6.35;4.38;;;23.30;99.90;;;;;;6216535;28;82706;-70
2023/10/10 13:04:08;;;;;;;6.05;4.05;;;23.40;99.90;;;;;;6220708;28;83417;-70
2023/10/10 13:07:10;;;;;;;6.78;4.25;;;23.40;99.90;;;;;;6230437;28;84007;-71
2023/10/10 13:10:13;;;;;;;5.57;4.13;;;23.40;99.90;;;;;;6228331;28;84071;-71
2023/10/10 13:13:26;;;;;;;6.35;3.97;;;23.30;99.90;;;;;;6217365;28;83927;-71
2023/10/10 13:16:52;;;;;;;7.60;4.00;;;23.30;99.90;;;;;;6222737;28;84000;-70
2023/10/10 13:19:52;;;;;;;9.82;4.13;;;23.40;99.90;;;;;;6219908;28;84214;-71
2023/10/10 13:22:54;;;;;;;9.20;4.75;;;23.40;99.90;;;;;;6219757;28;84045;-71
2023/10/10 13:25:56;;;;;;;9.13;4.55;;;23.40;99.90;;;;;;6213425;28;82905;-73
2023/10/10 13:29:01;;;;;;;8.73;4.47;;;23.40;99.90;;;;;;6232532;28;83436;-73
2023/10/10 13:32:06;;;;;;;8.48;4.97;;;23.40;99.90;;;;;;6227469;28;84282;-72
2023/10/10 13:35:09;;;;;;;12.45;5.25;;;23.40;99.90;;;;;;6224487;28;82360;-73
2023/10/10 13:38:12;;;;;;;11.25;5.10;;;23.40;99.90;;;;;;6220101;28;84351;-72
2023/10/10 13:41:16;;;;;;;13.60;5.10;;;23.40;99.90;;;;;;6229444;28;84780;-72
2023/10/10 13:44:19;;;;;;;13.32;6.10;;;23.50;99.90;;;;;;6216106;28;85075;-72
2023/10/10 13:47:24;;;;;;;13.90;6.10;;;23.40;99.90;;;;;;6223920;28;84052;-73
2023/10/10 13:50:31;;;;;;;11.70;5.60;;;23.40;99.90;;;;;;6215041;28;83509;-73
2023/10/10 13:53:33;;;;;;;13.98;5.95;;;23.40;99.90;;;;;;6222489;28;83040;-72
2023/10/10 13:56:35;;;;;;;11.43;5.60;;;23.40;99.90;;;;;;6234997;28;83971;-72
2023/10/10 13:59:38;;;;;;;10.20;5.47;;;23.40;99.90;;;;;;6221046;28;83208;-72
2023/10/10 14:02:43;;;;;;;10.65;5.68;;;23.40;99.90;;;;;;6233781;28;84273;-72
2023/10/10 14:06:00;;;;;;;14.07;5.80;;;23.40;99.90;;;;;;6228632;28;83127;-73
2023/10/10 14:09:03;;;;;;;14.05;5.88;;;23.40;99.90;;;;;;6230361;28;84104;-73
2023/10/10 14:12:08;;;;;;;10.73;5.43;;;23.40;99.90;;;;;;6219722;28;84011;-73
2023/10/10 14:15:12;;;;;;;13.05;6.00;;;23.40;99.90;;;;;;6230186;28;84937;-73
2023/10/10 14:18:14;;;;;;;16.35;5.72;;;23.40;99.90;;;;;;6209896;28;84082;-73
2023/10/10 14:21:17;;;;;;;12.25;5.50;;;23.40;99.90;;;;;;6232803;28;82929;-72
2023/10/10 14:24:19;;;;;;;13.20;5.57;;;23.40;99.90;;;;;;6227478;28;82931;-73
2023/10/10 14:27:23;;;;;;;9.75;5.45;;;23.40;99.90;;;;;;6233264;28;84061;-73
2023/10/10 14:30:26;;;;;;;12.25;5.53;;;23.40;99.90;;;;;;6230895;28;84204;-72
2023/10/10 14:33:28;;;;;;;12.00;6.05;;;23.40;99.90;;;;;;6208816;28;82912;-73
2023/10/10 14:36:31;;;;;;;10.05;5.15;;;23.40;99.90;;;;;;6233874;28;83573;-73
2023/10/10 14:39:36;;;;;;;9.55;5.00;;;23.40;99.90;;;;;;6221866;28;82852;-73
2023/10/10 14:42:38;;;;;;;9.85;5.57;;;23.40;99.90;;;;;;6223585;28;83970;-73
2023/10/10 14:45:43;;;;;;;10.05;5.75;;;23.40;99.90;;;;;;6227499;28;85240;-72
2023/10/10 14:48:46;;;;;;;9.93;4.97;;;23.40;99.90;;;;;;6233140;28;84443;-73
2023/10/10 14:51:49;;;;;;;10.55;5.30;;;23.40;99.90;;;;;;6212746;28;84093;-73
2023/10/10 14:54:51;;;;;;;9.93;5.28;;;23.40;99.90;;;;;;6228317;28;84039;-73
2023/10/10 14:57:54;;;;;;;11.57;5.20;;;23.40;99.90;;;;;;6227509;28;84354;-73
2023/10/10 15:00:58;;;;;;;9.38;5.25;;;23.40;99.80;;;;;;6234612;28;84044;-72
2023/10/10 15:04:02;;;;;;;10.30;5.25;;;23.40;99.80;;;;;;6236558;28;84013;-73
2023/10/10 15:07:04;;;;;;;10.90;6.22;;;23.40;99.80;;;;;;6227856;28;82592;-73
2023/10/10 15:10:06;;;;;;;9.63;5.00;;;23.40;99.80;;;;;;6237449;28;83880;-74
2023/10/10 15:13:10;;;;;;;8.77;5.03;;;23.40;99.80;;;;;;6223458;28;84102;-73
2023/10/10 15:16:13;;;;;;;8.82;4.97;;;23.40;99.80;;;;;;6235754;28;85009;-72
2023/10/10 15:19:16;;;;;;;10.23;5.32;;;23.40;99.60;;;;;;6220398;28;84252;-74
2023/10/10 15:22:18;;;;;;;9.15;5.00;;;23.40;99.80;;;;;;6219749;28;82885;-73
2023/10/10 15:25:21;;;;;;;9.85;5.43;;;23.30;99.70;;;;;;6234605;28;84264;-72
2023/10/10 15:28:24;;;;;;;9.73;4.90;;;23.30;99.60;;;;;;6212840;28;84183;-72
2023/10/10 15:31:30;;;;;;;9.55;4.70;;;23.30;99.60;;;;;;6223238;28;84015;-72
2023/10/10 15:34:32;;;;;;;7.78;5.38;;;23.40;99.60;;;;;;6230737;28;84218;-73
2023/10/10 15:37:34;;;;;;;9.85;5.00;;;23.40;99.60;;;;;;6236939;28;81932;-72
2023/10/10 15:40:39;;;;;;;9.02;5.22;;;23.30;99.50;;;;;;6223027;28;84105;-72
2023/10/10 15:43:46;;;;;;;8.10;4.72;;;23.30;99.60;;;;;;6235731;28;84201;-72
2023/10/10 15:46:53;;;;;;;8.40;4.70;;;23.40;99.60;;;;;;6217089;28;84441;-72
2023/10/10 15:50:00;;;;;;;7.68;4.57;;;23.40;99.60;;;;;;6215419;28;84400;-72
2023/10/10 15:53:02;;;;;;;9.25;4.60;;;23.30;99.60;;;;;;6216969;28;84151;-71
2023/10/10 15:56:11;;;;;;;8.60;4.60;;;23.30;99.60;;;;;;6229220;28;84309;-72
2023/10/10 15:59:14;;;;;;;6.97;4.75;;;23.40;99.60;;;;;;6215839;28;84028;-73
2023/10/10 16:02:18;;;;;;;8.88;5.30;;;23.30;99.60;;;;;;6221862;28;82919;-72
2023/10/10 16:05:20;;;;;;;8.55;4.68;;;23.30;99.60;;;;;;6227642;28;83947;-72
2023/10/10 16:08:23;;;;;;;8.60;5.00;;;23.30;99.60;;;;;;6223117;28;82532;-72
2023/10/10 16:11:31;;;;;;;8.88;4.65;;;23.40;99.60;;;;;;6228520;28;83204;-73
2023/10/10 16:14:36;;;;;;;10.57;5.07;;;23.30;99.60;;;;;;6231377;28;84108;-72
2023/10/10 16:17:42;;;;;;;8.43;4.95;;;23.30;99.60;;;;;;6233875;28;84885;-73
2023/10/10 16:20:45;;;;;;;7.80;4.78;;;23.30;99.50;;;;;;6228135;28;84167;-73
2023/10/10 16:23:47;;;;;;;9.68;5.10;;;23.30;99.50;;;;;;6230683;28;84032;-73
2023/10/10 16:26:56;;;;;;;9.30;4.78;;;23.30;99.60;;;;;;6232814;28;84188;-72
2023/10/10 16:29:58;;;;;;;7.97;4.63;;;23.40;99.80;;;;;;6218000;28;84054;-72
2023/10/10 16:33:02;;;;;;;7.53;4.57;;;23.30;99.90;;;;;;6235104;28;84074;-73
2023/10/10 16:36:07;;;;;;;7.05;4.50;;;23.30;99.90;;;;;;6217750;28;84349;-74
2023/10/10 16:39:11;;;;;;;7.50;4.32;;;23.40;99.90;;;;;;6217495;28;83327;-74
2023/10/10 16:42:13;;;;;;;8.68;4.63;;;23.40;99.90;;;;;;6218594;28;84321;-73
2023/10/10 16:45:17;;;;;;;10.95;4.90;;;23.30;99.90;;;;;;6215954;28;82879;-74
2023/10/10 16:48:20;;;;;;;13.73;4.97;;;23.40;99.90;;;;;;6221674;28;85176;-73
2023/10/10 16:51:26;;;;;;;7.93;4.38;;;23.40;99.90;;;;;;6223075;28;83855;-74
2023/10/10 16:54:33;;;;;;;11.70;5.53;;;23.30;99.90;;;;;;6225287;28;84127;-73
2023/10/10 16:57:36;;;;;;;8.77;4.88;;;23.40;99.90;;;;;;6227034;28;83971;-72
2023/10/10 17:00:39;;;;;;;7.18;4.13;;;23.40;99.90;;;;;;6224681;28;82950;-72
2023/10/10 17:03:45;;;;;;;8.52;4.63;;;23.30;99.80;;;;;;6214869;28;82962;-72
2023/10/10 17:06:49;;;;;;;10.88;4.80;;;23.30;99.80;;;;;;6231020;28;82829;-73
2023/10/10 17:09:53;;;;;;;8.60;4.57;;;23.40;99.90;;;;;;6215735;28;82575;-73
2023/10/10 17:12:57;;;;;;;13.40;5.00;;;23.40;99.90;;;;;;6210245;28;82984;-72
2023/10/10 17:16:01;;;;;;;11.48;4.43;;;23.40;99.90;;;;;;6219877;28;82729;-71
2023/10/10 17:19:06;;;;;;;10.90;4.93;;;23.30;99.90;;;;;;6219034;28;83819;-71
2023/10/10 17:22:10;;;;;;;11.02;4.88;;;23.40;99.90;;;;;;6224807;28;82928;-73
2023/10/10 17:25:17;;;;;;;11.60;5.43;;;23.40;99.90;;;;;;6213984;28;83332;-73
2023/10/10 17:28:21;;;;;;;13.23;5.45;;;23.40;99.90;;;;;;6218749;28;82787;-73
2023/10/10 17:31:25;;;;;;;9.30;4.68;;;23.40;99.90;;;;;;6225169;28;84426;-73
2023/10/10 17:34:33;;;;;;;10.35;5.22;;;23.50;99.90;;;;;;6224507;28;81969;-74
2023/10/10 17:37:38;;;;;;;15.90;6.53;;;23.60;99.90;;;;;;6216391;28;82818;-71
2023/10/10 17:40:42;;;;;;;13.60;5.80;;;23.80;99.90;;;;;;6218052;28;82899;-73
2023/10/10 17:43:46;;;;;;;12.45;5.53;;;24.00;99.90;;;;;;6227731;28;84603;-72
2023/10/10 17:46:52;;;;;;;9.38;5.55;;;24.20;99.90;;;;;;6211332;28;83003;-73
2023/10/10 17:49:58;;;;;;;9.82;5.22;;;24.30;99.50;;;;;;6220230;28;82984;-71
2023/10/10 17:53:00;;;;;;;7.53;5.30;;;24.40;98.30;;;;;;6226843;28;83308;-73
2023/10/10 17:56:04;;;;;;;10.38;5.30;;;24.40;97.70;;;;;;6224624;28;84003;-72
2023/10/10 17:59:06;;;;;;;11.15;5.80;;;24.40;97.50;;;;;;6218323;28;82751;-72
2023/10/10 18:02:09;;;;;;;8.98;5.13;;;24.40;97.40;;;;;;6215688;28;83927;-72